Time,TemperatureF,DewpointF,PressureIn,WindDirection,WindDirectionDegrees,WindSpeedMPH,WindSpeedGustMPH,Humidity,HourlyPrecipIn,Conditions,Clouds,dailyrainin,SoftwareType,DateUTC
2013-06-08 00:10:00,60.6,60.3,29.53,NNE,22,3.7,-999.0,99,-99.99,,,0.05,Acu-Link.com,2013-06-08 04:10:00,
2013-06-08 00:25:00,60.4,60.1,29.53,North,0,5.8,-999.0,99,-99.99,,,0.12,Acu-Link.com,2013-06-08 04:25:00,
2013-06-08 00:40:00,60.1,59.8,29.52,NE,45,4.7,-999.0,99,-99.99,,,0.14,Acu-Link.com,2013-06-08 04:40:00,
2013-06-08 00:56:00,59.9,59.6,29.51,North,0,4.7,-999.0,99,-99.99,,,0.31,Acu-Link.com,2013-06-08 04:56:00,
2013-06-08 01:41:00,59.7,59.4,29.50,NW,315,7.3,-999.0,99,-99.99,,,0.64,Acu-Link.com,2013-06-08 05:41:00,
2013-06-08 01:57:00,59.5,59.2,29.50,ENE,67,8.9,-999.0,99,-99.99,,,0.77,Acu-Link.com,2013-06-08 05:57:00,
2013-06-08 02:12:00,59.5,59.2,29.50,NNW,337,4.7,-999.0,99,-99.99,,,0.82,Acu-Link.com,2013-06-08 06:12:00,
2013-06-08 02:27:00,59.0,58.7,29.49,WNW,292,5.3,-999.0,99,-99.99,,,0.86,Acu-Link.com,2013-06-08 06:27:00,
2013-06-08 02:43:00,58.6,58.3,29.49,WNW,292,7.3,-999.0,99,-99.99,,,0.86,Acu-Link.com,2013-06-08 06:43:00,
2013-06-08 02:58:00,58.3,58.0,29.50,NNE,22,5.8,-999.0,99,-99.99,,,0.86,Acu-Link.com,2013-06-08 06:58:00,
2013-06-08 03:13:00,58.1,57.8,29.51,NW,315,9.4,-999.0,99,-99.99,,,0.87,Acu-Link.com,2013-06-08 07:13:00,
2013-06-08 03:28:00,57.7,57.1,29.51,NNW,337,14.0,-999.0,98,-99.99,,,0.87,Acu-Link.com,2013-06-08 07:28:00,
2013-06-08 03:43:00,57.7,57.1,29.52,North,0,5.8,-999.0,98,-99.99,,,0.87,Acu-Link.com,2013-06-08 07:43:00,
2013-06-08 03:58:00,57.6,57.3,29.53,NNE,22,5.3,-999.0,99,-99.99,,,0.87,Acu-Link.com,2013-06-08 07:58:00,
2013-06-08 04:13:00,57.4,57.1,29.54,West,270,6.8,-999.0,99,-99.99,,,0.87,Acu-Link.com,2013-06-08 08:13:00,
2013-06-08 04:28:00,57.6,57.3,29.55,WNW,292,7.3,-999.0,99,-99.99,,,0.88,Acu-Link.com,2013-06-08 08:28:00,
2013-06-08 04:44:00,57.6,57.3,29.57,NNW,337,8.3,-999.0,99,-99.99,,,0.88,Acu-Link.com,2013-06-08 08:44:00,
2013-06-08 04:59:00,57.6,56.8,29.58,West,270,2.7,-999.0,97,-99.99,,,0.88,Acu-Link.com,2013-06-08 08:59:00,
2013-06-08 05:14:00,57.4,56.3,29.59,NNW,337,5.8,-999.0,96,-99.99,,,0.88,Acu-Link.com,2013-06-08 09:14:00,
2013-06-08 05:29:00,57.4,56.3,29.61,WSW,247,2.2,-999.0,96,-99.99,,,0.88,Acu-Link.com,2013-06-08 09:29:00,
2013-06-08 05:44:00,57.6,56.2,29.62,NNE,22,4.7,-999.0,95,-99.99,,,0.88,Acu-Link.com,2013-06-08 09:44:00,
2013-06-08 05:59:00,57.6,56.2,29.64,East,90,4.7,-999.0,95,-99.99,,,0.88,Acu-Link.com,2013-06-08 09:59:00,
2013-06-08 06:15:00,57.9,56.2,29.66,NNW,337,2.7,-999.0,94,-99.99,,,0.88,Acu-Link.com,2013-06-08 10:15:00,
2013-06-08 06:30:00,58.1,56.4,29.68,NNW,337,1.7,-999.0,94,-99.99,,,0.88,Acu-Link.com,2013-06-08 10:30:00,
2013-06-08 06:45:00,58.6,56.3,29.69,WNW,292,5.3,-999.0,92,-99.99,,,0.88,Acu-Link.com,2013-06-08 10:45:00,
2013-06-08 07:01:00,60.1,57.5,29.70,WNW,292,3.7,-999.0,91,-99.99,,,0.88,Acu-Link.com,2013-06-08 11:01:00,
2013-06-08 07:16:00,60.6,57.3,29.70,WSW,247,2.7,-999.0,89,-99.99,,,0.88,Acu-Link.com,2013-06-08 11:16:00,
2013-06-08 07:31:00,60.6,57.3,29.72,WSW,247,4.7,-999.0,89,-99.99,,,0.88,Acu-Link.com,2013-06-08 11:31:00,
2013-06-08 07:47:00,60.8,57.5,29.73,WSW,247,3.2,-999.0,89,-99.99,,,0.88,Acu-Link.com,2013-06-08 11:47:00,
2013-06-08 08:02:00,62.1,58.8,29.73,SSW,202,3.7,-999.0,89,-99.99,,,0.88,Acu-Link.com,2013-06-08 12:02:00,
2013-06-08 08:17:00,62.2,58.9,29.74,WNW,292,2.7,-999.0,89,-99.99,,,0.88,Acu-Link.com,2013-06-08 12:17:00,
2013-06-08 08:32:00,62.8,58.9,29.74,South,180,1.7,-999.0,87,-99.99,,,0.88,Acu-Link.com,2013-06-08 12:32:00,
2013-06-08 08:47:00,64.8,59.8,29.75,North,0,1.1,-999.0,84,-99.99,,,0.88,Acu-Link.com,2013-06-08 12:47:00,
2013-06-08 09:02:00,65.5,60.2,29.75,SW,225,2.7,-999.0,83,-99.99,,,0.88,Acu-Link.com,2013-06-08 13:02:00,
2013-06-08 09:17:00,66.7,61.0,29.76,WSW,247,3.7,-999.0,82,-99.99,,,0.88,Acu-Link.com,2013-06-08 13:17:00,
2013-06-08 09:33:00,67.6,61.2,29.76,SSW,202,4.2,-999.0,80,-99.99,,,0.88,Acu-Link.com,2013-06-08 13:33:00,
2013-06-08 09:48:00,68.2,61.4,29.76,WSW,247,10.4,-999.0,79,-99.99,,,0.88,Acu-Link.com,2013-06-08 13:48:00,
2013-06-08 10:03:00,70.7,62.4,29.76,West,270,5.8,-999.0,75,-99.99,,,0.88,Acu-Link.com,2013-06-08 14:03:00,
2013-06-08 10:19:00,71.8,62.3,29.77,WNW,292,6.3,-999.0,72,-99.99,,,0.88,Acu-Link.com,2013-06-08 14:19:00,
2013-06-08 10:34:00,71.6,62.1,29.78,SW,225,4.7,-999.0,72,-99.99,,,0.88,Acu-Link.com,2013-06-08 14:34:00,
2013-06-08 10:49:00,73.4,63.0,29.79,SW,225,4.7,-999.0,70,-99.99,,,0.88,Acu-Link.com,2013-06-08 14:49:00,
2013-06-08 11:04:00,73.4,62.6,29.79,SW,225,4.7,-999.0,69,-99.99,,,0.88,Acu-Link.com,2013-06-08 15:04:00,
2013-06-08 11:19:00,73.2,62.0,29.79,WSW,247,3.7,-999.0,68,-99.99,,,0.88,Acu-Link.com,2013-06-08 15:19:00,
2013-06-08 11:35:00,74.1,62.8,29.79,WSW,247,7.3,-999.0,68,-99.99,,,0.88,Acu-Link.com,2013-06-08 15:35:00,
2013-06-08 11:50:00,74.8,63.1,29.80,South,180,4.2,-999.0,67,-99.99,,,0.88,Acu-Link.com,2013-06-08 15:50:00,
2013-06-08 12:05:00,75.6,63.4,29.80,SW,225,6.3,-999.0,66,-99.99,,,0.88,Acu-Link.com,2013-06-08 16:05:00,
2013-06-08 12:20:00,75.4,63.2,29.80,NNW,337,7.3,-999.0,66,-99.99,,,0.88,Acu-Link.com,2013-06-08 16:20:00,
2013-06-08 12:36:00,75.6,63.0,29.80,West,270,4.7,-999.0,65,-99.99,,,0.88,Acu-Link.com,2013-06-08 16:36:00,
2013-06-08 12:51:00,76.5,62.9,29.80,West,270,7.3,-999.0,63,-99.99,,,0.88,Acu-Link.com,2013-06-08 16:51:00,
2013-06-08 13:06:00,76.8,63.2,29.81,SW,225,2.7,-999.0,63,-99.99,,,0.88,Acu-Link.com,2013-06-08 17:06:00,
2013-06-08 13:21:00,76.5,63.8,29.80,WNW,292,6.8,-999.0,65,-99.99,,,0.88,Acu-Link.com,2013-06-08 17:21:00,
2013-06-08 13:51:00,77.2,63.2,29.81,SSE,157,5.8,-999.0,62,-99.99,,,0.88,Acu-Link.com,2013-06-08 17:51:00,
2013-06-08 14:07:00,78.4,63.3,29.81,SSW,202,3.2,-999.0,60,-99.99,,,0.88,Acu-Link.com,2013-06-08 18:07:00,
2013-06-08 14:22:00,77.0,63.4,29.81,WSW,247,4.7,-999.0,63,-99.99,,,0.88,Acu-Link.com,2013-06-08 18:22:00,
2013-06-08 14:37:00,76.5,63.4,29.81,NNE,22,4.7,-999.0,64,-99.99,,,0.88,Acu-Link.com,2013-06-08 18:37:00,
2013-06-08 14:52:00,75.9,63.7,29.81,NW,315,6.8,-999.0,66,-99.99,,,0.88,Acu-Link.com,2013-06-08 18:52:00,
2013-06-08 15:07:00,76.5,63.8,29.80,West,270,2.7,-999.0,65,-99.99,,,0.88,Acu-Link.com,2013-06-08 19:07:00,
2013-06-08 15:22:00,75.9,63.3,29.81,SSW,202,1.7,-999.0,65,-99.99,,,0.88,Acu-Link.com,2013-06-08 19:22:00,
2013-06-08 15:38:00,76.6,63.5,29.81,West,270,2.2,-999.0,64,-99.99,,,0.88,Acu-Link.com,2013-06-08 19:38:00,
2013-06-08 15:53:00,76.6,63.5,29.82,WNW,292,5.3,-999.0,64,-99.99,,,0.88,Acu-Link.com,2013-06-08 19:53:00,
2013-06-08 16:08:00,76.8,63.7,29.83,NW,315,3.2,-999.0,64,-99.99,,,0.88,Acu-Link.com,2013-06-08 20:08:00,
2013-06-08 16:23:00,77.2,64.1,29.83,WSW,247,2.7,-999.0,64,-99.99,,,0.88,Acu-Link.com,2013-06-08 20:23:00,
2013-06-08 16:38:00,76.5,63.8,29.83,NW,315,4.7,-999.0,65,-99.99,,,0.88,Acu-Link.com,2013-06-08 20:38:00,
2013-06-08 16:53:00,76.6,63.9,29.83,NW,315,4.2,-999.0,65,-99.99,,,0.88,Acu-Link.com,2013-06-08 20:53:00,
2013-06-08 17:08:00,76.5,64.3,29.84,NNW,337,4.7,-999.0,66,-99.99,,,0.88,Acu-Link.com,2013-06-08 21:08:00,
2013-06-08 17:24:00,77.7,64.1,29.84,West,270,2.2,-999.0,63,-99.99,,,0.88,Acu-Link.com,2013-06-08 21:24:00,
2013-06-08 17:39:00,77.4,63.8,29.85,NNW,337,3.7,-999.0,63,-99.99,,,0.88,Acu-Link.com,2013-06-08 21:39:00,
2013-06-08 17:54:00,78.1,64.5,29.86,WNW,292,0.0,-999.0,63,-99.99,,,0.88,Acu-Link.com,2013-06-08 21:54:00,
2013-06-08 18:09:00,79.7,65.5,29.85,West,270,4.7,-999.0,62,-99.99,,,0.88,Acu-Link.com,2013-06-08 22:09:00,
2013-06-08 18:25:00,80.2,64.5,29.85,WSW,247,3.7,-999.0,59,-99.99,,,0.88,Acu-Link.com,2013-06-08 22:25:00,
2013-06-08 18:40:00,81.0,65.3,29.86,South,180,3.2,-999.0,59,-99.99,,,0.88,Acu-Link.com,2013-06-08 22:40:00,
2013-06-08 18:55:00,80.1,64.9,29.87,South,180,5.8,-999.0,60,-99.99,,,0.88,Acu-Link.com,2013-06-08 22:55:00,
2013-06-08 19:10:00,78.1,64.5,29.86,WNW,292,5.8,-999.0,63,-99.99,,,0.88,Acu-Link.com,2013-06-08 23:10:00,
2013-06-08 19:25:00,78.4,64.7,29.87,West,270,3.2,-999.0,63,-99.99,,,0.88,Acu-Link.com,2013-06-08 23:25:00,
2013-06-08 19:41:00,77.5,63.4,29.88,SW,225,4.2,-999.0,62,-99.99,,,0.88,Acu-Link.com,2013-06-08 23:41:00,
2013-06-08 20:11:00,76.1,63.5,29.88,West,270,3.2,-999.0,65,-99.99,,,0.88,Acu-Link.com,2013-06-09 00:11:00,
2013-06-08 20:27:00,75.4,63.2,29.88,NNW,337,3.7,-999.0,66,-99.99,,,0.88,Acu-Link.com,2013-06-09 00:27:00,
2013-06-08 20:42:00,74.8,63.1,29.89,WNW,292,4.2,-999.0,67,-99.99,,,0.88,Acu-Link.com,2013-06-09 00:42:00,
2013-06-08 20:57:00,74.7,63.4,29.89,NNE,22,3.7,-999.0,68,-99.99,,,0.88,Acu-Link.com,2013-06-09 00:57:00,
2013-06-08 21:12:00,74.1,62.8,29.91,NNE,22,2.2,-999.0,68,-99.99,,,0.88,Acu-Link.com,2013-06-09 01:12:00,
2013-06-08 21:28:00,73.8,63.0,29.92,NE,45,5.8,-999.0,69,-99.99,,,0.88,Acu-Link.com,2013-06-09 01:28:00,
2013-06-08 21:43:00,73.2,62.4,29.92,SW,225,2.7,-999.0,69,-99.99,,,0.88,Acu-Link.com,2013-06-09 01:43:00,
2013-06-08 21:58:00,73.0,62.2,29.93,NNW,337,2.7,-999.0,69,-99.99,,,0.88,Acu-Link.com,2013-06-09 01:58:00,
2013-06-08 22:14:00,73.2,62.4,29.94,WNW,292,3.7,-999.0,69,-99.99,,,0.88,Acu-Link.com,2013-06-09 02:14:00,
2013-06-08 22:29:00,73.0,62.2,29.95,North,0,0.0,-999.0,69,-99.99,,,0.88,Acu-Link.com,2013-06-09 02:29:00,
2013-06-08 22:44:00,72.9,62.1,29.95,WNW,292,1.7,-999.0,69,-99.99,,,0.88,Acu-Link.com,2013-06-09 02:44:00,
2013-06-08 22:59:00,72.9,62.1,29.96,WSW,247,3.7,-999.0,69,-99.99,,,0.88,Acu-Link.com,2013-06-09 02:59:00,
2013-06-08 23:14:00,72.7,61.5,29.95,West,270,2.2,-999.0,68,-99.99,,,0.88,Acu-Link.com,2013-06-09 03:14:00,
2013-06-08 23:30:00,72.5,61.7,29.96,WNW,292,3.2,-999.0,69,-99.99,,,0.88,Acu-Link.com,2013-06-09 03:30:00,
2013-06-08 23:45:00,72.1,61.4,29.96,WNW,292,0.0,-999.0,69,-99.99,,,0.88,Acu-Link.com,2013-06-09 03:45:00,